Time;durP1;ratioP1;P1;durP2;ratioP2;P2;SDS_P1;SDS_P2;PMS_P1;PMS_P2;Temp;Humidity;BMP_temperature;BMP_pressure;BME280_temperature;BME280_humidity;BME280_pressure;Samples;Min_cycle;Max_cycle;Signal;HPM_P1;HPM_P2
2021/07/13 00:00:09;;;;;;;41.22;34.70;;;;;;;;;;5011091;28;20206;-70
2021/07/13 00:02:34;;;;;;;44.45;36.58;;;;;;;;;;5024020;28;20304;-70
2021/07/13 00:04:59;;;;;;;42.58;34.70;;;;;;;;;;5018776;28;20190;-70
2021/07/13 00:07:25;;;;;;;43.03;36.15;;;;;;;;;;5026790;28;20202;-70
2021/07/13 00:09:50;;;;;;;41.80;36.30;;;;;;;;;;5014959;28;20233;-70
2021/07/13 00:12:15;;;;;;;42.10;35.97;;;;;;;;;;5025470;28;20226;-70
2021/07/13 00:14:41;;;;;;;44.55;37.55;;;;;;;;;;5019806;28;20595;-70
2021/07/13 00:17:06;;;;;;;45.03;37.78;;;;;;;;;;5024299;28;20291;-70
2021/07/13 00:19:35;;;;;;;45.30;38.13;;;;;;;;;;5025511;28;20197;-70
2021/07/13 00:22:03;;;;;;;46.85;39.35;;;;;;;;;;5014570;28;20683;-70
2021/07/13 00:24:28;;;;;;;44.05;37.90;;;;;;;;;;5022763;28;20206;-70
2021/07/13 00:26:53;;;;;;;45.22;39.17;;;;;;;;;;5017678;28;20212;-70
2021/07/13 00:29:19;;;;;;;44.67;37.55;;;;;;;;;;5028604;28;20186;-70
2021/07/13 00:31:44;;;;;;;44.88;37.95;;;;;;;;;;4998663;28;20186;-70
2021/07/13 00:34:09;;;;;;;43.50;38.25;;;;;;;;;;5026864;28;20182;-70
2021/07/13 00:36:35;;;;;;;44.13;37.72;;;;;;;;;;5015333;28;20400;-70
2021/07/13 00:39:00;;;;;;;46.30;39.63;;;;;;;;;;5021680;28;20190;-70
2021/07/13 00:41:25;;;;;;;47.92;40.25;;;;;;;;;;5015576;28;20197;-70
2021/07/13 00:43:51;;;;;;;45.45;39.08;;;;;;;;;;5028432;28;20247;-70
2021/07/13 00:46:16;;;;;;;47.08;39.55;;;;;;;;;;5017923;28;20260;-70
2021/07/13 00:48:42;;;;;;;47.15;39.65;;;;;;;;;;5016809;28;20242;-70
2021/07/13 00:51:10;;;;;;;51.13;41.78;;;;;;;;;;5022714;28;20281;-70
2021/07/13 00:53:41;;;;;;;48.00;39.45;;;;;;;;;;5014341;28;20229;-70
2021/07/13 00:56:06;;;;;;;51.88;42.30;;;;;;;;;;5021838;28;20237;-70
2021/07/13 00:58:32;;;;;;;51.00;42.22;;;;;;;;;;5011739;28;20206;-70
2021/07/13 01:00:57;;;;;;;55.10;42.30;;;;;;;;;;5025710;28;20205;-70
2021/07/13 01:03:22;;;;;;;52.17;42.22;;;;;;;;;;5012980;28;20216;-70
2021/07/13 01:05:50;;;;;;;55.00;43.50;;;;;;;;;;5022747;28;20210;-70
2021/07/13 01:08:38;;;;;;;53.35;44.13;;;;;;;;;;5010422;28;20740;-70
2021/07/13 01:11:21;;;;;;;49.53;42.25;;;;;;;;;;5020272;28;20187;-70
2021/07/13 01:14:01;;;;;;;50.38;42.42;;;;;;;;;;5016049;28;20186;-70
2021/07/13 01:16:53;;;;;;;53.70;44.42;;;;;;;;;;5006545;28;20540;-70
2021/07/13 01:19:49;;;;;;;52.75;43.22;;;;;;;;;;5007920;28;20218;-70
2021/07/13 01:22:31;;;;;;;55.90;43.75;;;;;;;;;;5018022;28;20178;-70
2021/07/13 01:25:07;;;;;;;55.47;44.35;;;;;;;;;;5012089;28;20195;-70
2021/07/13 01:27:39;;;;;;;49.00;41.38;;;;;;;;;;5017492;28;20189;-70
2021/07/13 01:30:15;;;;;;;54.97;44.38;;;;;;;;;;5015412;28;20194;-69
2021/07/13 01:32:44;;;;;;;56.15;45.60;;;;;;;;;;5019088;28;20194;-70
2021/07/13 01:35:14;;;;;;;55.40;43.75;;;;;;;;;;5014987;28;20195;-70
2021/07/13 01:37:44;;;;;;;59.55;45.72;;;;;;;;;;5018995;28;20214;-69
2021/07/13 01:40:10;;;;;;;55.75;45.17;;;;;;;;;;5014033;28;20297;-70
2021/07/13 01:42:39;;;;;;;56.63;44.55;;;;;;;;;;5009196;28;20194;-70
2021/07/13 01:45:05;;;;;;;61.55;44.75;;;;;;;;;;5015308;28;20256;-70
2021/07/13 01:47:35;;;;;;;59.47;47.28;;;;;;;;;;5025552;28;20679;-69
2021/07/13 01:50:01;;;;;;;57.17;46.10;;;;;;;;;;5016575;28;20325;-69
2021/07/13 01:52:28;;;;;;;59.72;47.03;;;;;;;;;;5024992;28;20198;-69
2021/07/13 01:54:55;;;;;;;57.22;46.80;;;;;;;;;;5020902;28;20681;-69
2021/07/13 01:57:21;;;;;;;63.55;49.85;;;;;;;;;;5026097;28;20210;-69
2021/07/13 01:59:47;;;;;;;64.10;48.35;;;;;;;;;;5026312;28;20250;-69
2021/07/13 02:02:13;;;;;;;61.15;48.33;;;;;;;;;;5017123;28;20178;-69
2021/07/13 02:04:41;;;;;;;60.97;48.40;;;;;;;;;;5027379;28;20243;-69
2021/07/13 02:07:08;;;;;;;66.30;49.60;;;;;;;;;;5018284;28;20178;-69
2021/07/13 02:09:35;;;;;;;64.70;50.00;;;;;;;;;;5026918;28;20512;-69
2021/07/13 02:12:02;;;;;;;63.83;50.58;;;;;;;;;;5018202;28;20178;-69
2021/07/13 02:14:27;;;;;;;69.03;51.60;;;;;;;;;;5026288;28;20240;-69
2021/07/13 02:16:53;;;;;;;68.35;49.88;;;;;;;;;;5018636;28;20178;-69
2021/07/13 02:19:18;;;;;;;63.85;50.40;;;;;;;;;;5027674;28;20210;-69
2021/07/13 02:21:44;;;;;;;66.35;51.38;;;;;;;;;;5020043;28;20205;-69
2021/07/13 02:24:10;;;;;;;75.07;55.03;;;;;;;;;;5026479;28;21238;-69
2021/07/13 02:26:48;;;;;;;77.38;54.42;;;;;;;;;;5019561;28;20193;-69
2021/07/13 02:29:26;;;;;;;80.20;58.25;;;;;;;;;;5025600;28;20178;-69
2021/07/13 02:32:02;;;;;;;84.97;59.00;;;;;;;;;;5019103;28;20197;-69
2021/07/13 02:34:28;;;;;;;81.88;57.92;;;;;;;;;;5027898;28;20189;-69
2021/07/13 02:36:58;;;;;;;86.63;62.10;;;;;;;;;;5025021;28;20235;-69
2021/07/13 02:39:24;;;;;;;81.47;59.97;;;;;;;;;;5019133;28;20207;-69
2021/07/13 02:41:53;;;;;;;85.93;61.10;;;;;;;;;;5022192;28;20205;-69
2021/07/13 02:44:19;;;;;;;85.93;62.42;;;;;;;;;;5015331;28;20217;-69
2021/07/13 02:46:45;;;;;;;84.22;60.97;;;;;;;;;;5025228;28;20217;-69
2021/07/13 02:49:15;;;;;;;89.47;62.17;;;;;;;;;;5016125;28;20241;-69
2021/07/13 02:51:42;;;;;;;86.60;61.85;;;;;;;;;;5022197;28;20198;-69
2021/07/13 02:54:09;;;;;;;91.07;63.55;;;;;;;;;;5015392;28;20217;-69
2021/07/13 02:56:38;;;;;;;86.90;63.95;;;;;;;;;;5022768;28;20229;-69
2021/07/13 02:59:04;;;;;;;91.55;65.10;;;;;;;;;;4997837;28;20221;-69
2021/07/13 03:01:30;;;;;;;95.25;65.53;;;;;;;;;;5019928;28;20571;-69
2021/07/13 03:03:57;;;;;;;93.43;63.88;;;;;;;;;;5013912;28;20194;-69
2021/07/13 03:06:22;;;;;;;104.80;69.85;;;;;;;;;;5019924;28;20210;-69
2021/07/13 03:08:48;;;;;;;106.55;69.43;;;;;;;;;;5010620;28;20166;-69
2021/07/13 03:11:14;;;;;;;106.65;73.50;;;;;;;;;;5018909;28;20692;-69
2021/07/13 03:13:41;;;;;;;106.18;71.20;;;;;;;;;;5021275;28;20174;-69
2021/07/13 03:16:09;;;;;;;108.30;74.80;;;;;;;;;;5012351;28;20193;-70
2021/07/13 03:18:35;;;;;;;113.53;74.38;;;;;;;;;;5026214;28;20190;-70
2021/07/13 03:21:02;;;;;;;106.35;72.63;;;;;;;;;;5012980;28;20321;-69
2021/07/13 03:23:29;;;;;;;116.78;75.60;;;;;;;;;;5027092;28;20634;-69
2021/07/13 03:25:55;;;;;;;114.93;77.18;;;;;;;;;;5016795;28;20182;-69
2021/07/13 03:28:22;;;;;;;111.75;74.68;;;;;;;;;;5018613;28;20190;-69
2021/07/13 03:30:48;;;;;;;114.90;77.35;;;;;;;;;;5010780;28;20186;-69
2021/07/13 03:33:14;;;;;;;113.35;75.93;;;;;;;;;;5025932;28;20193;-69
2021/07/13 03:35:40;;;;;;;117.15;79.32;;;;;;;;;;5011964;28;20190;-69
2021/07/13 03:38:06;;;;;;;113.43;79.07;;;;;;;;;;5016158;28;20207;-69
2021/07/13 03:40:31;;;;;;;113.93;77.85;;;;;;;;;;5013064;28;20209;-69
2021/07/13 03:42:58;;;;;;;113.97;78.97;;;;;;;;;;5023331;28;20633;-69
2021/07/13 03:45:25;;;;;;;112.93;77.68;;;;;;;;;;5019509;28;20526;-70
2021/07/13 03:47:58;;;;;;;112.35;77.03;;;;;;;;;;5016448;28;20226;-69
2021/07/13 03:50:28;;;;;;;112.78;76.30;;;;;;;;;;5021865;28;20237;-69
2021/07/13 03:52:53;;;;;;;106.18;75.95;;;;;;;;;;5017076;28;20696;-69
2021/07/13 03:55:19;;;;;;;104.78;74.47;;;;;;;;;;5023805;28;20178;-69
2021/07/13 03:57:44;;;;;;;101.70;73.28;;;;;;;;;;5012669;28;20248;-69
2021/07/13 04:00:18;;;;;;;104.30;75.78;;;;;;;;;;5021624;28;20340;-69
2021/07/13 04:02:43;;;;;;;104.07;74.22;;;;;;;;;;5009937;28;20198;-69
2021/07/13 04:05:10;;;;;;;106.57;74.95;;;;;;;;;;5021327;28;20221;-69
2021/07/13 04:07:35;;;;;;;100.65;71.70;;;;;;;;;;5015781;28;20182;-69
2021/07/13 04:10:03;;;;;;;108.80;74.38;;;;;;;;;;5021783;28;20282;-69
2021/07/13 04:12:28;;;;;;;109.18;75.78;;;;;;;;;;5014859;28;20281;-69
2021/07/13 04:14:54;;;;;;;104.28;73.13;;;;;;;;;;5021994;28;20281;-69
2021/07/13 04:17:19;;;;;;;106.05;72.32;;;;;;;;;;5018352;28;20212;-69
2021/07/13 04:19:44;;;;;;;108.63;74.05;;;;;;;;;;5015928;28;20186;-69
2021/07/13 04:22:10;;;;;;;113.50;76.40;;;;;;;;;;5022661;28;20190;-69
2021/07/13 04:24:35;;;;;;;109.35;75.38;;;;;;;;;;5014938;28;20616;-70
2021/07/13 04:27:00;;;;;;;112.78;77.43;;;;;;;;;;5027601;28;20620;-70
2021/07/13 04:29:26;;;;;;;124.03;79.68;;;;;;;;;;5019235;28;20190;-70
2021/07/13 04:31:51;;;;;;;122.80;81.85;;;;;;;;;;5027350;28;20276;-70
2021/07/13 04:34:16;;;;;;;122.47;80.47;;;;;;;;;;5016701;28;20229;-70
2021/07/13 04:36:42;;;;;;;123.70;82.45;;;;;;;;;;5022996;28;20186;-70
2021/07/13 04:39:08;;;;;;;125.72;81.55;;;;;;;;;;5018958;28;20206;-70
2021/07/13 04:41:35;;;;;;;126.68;82.25;;;;;;;;;;5021121;28;20186;-70
2021/07/13 04:44:01;;;;;;;121.07;81.00;;;;;;;;;;5014059;28;20211;-70
2021/07/13 04:46:28;;;;;;;117.72;79.80;;;;;;;;;;5020424;28;20672;-70
2021/07/13 04:48:54;;;;;;;128.57;79.75;;;;;;;;;;5017321;28;20222;-69
2021/07/13 04:51:20;;;;;;;126.72;82.18;;;;;;;;;;5023130;28;20194;-69
2021/07/13 04:53:45;;;;;;;129.20;82.68;;;;;;;;;;5027657;28;20193;-69
2021/07/13 04:56:11;;;;;;;134.95;84.18;;;;;;;;;;5012120;28;20182;-69
2021/07/13 04:58:36;;;;;;;139.27;85.07;;;;;;;;;;5021384;28;20217;-69
2021/07/13 05:01:02;;;;;;;133.50;83.35;;;;;;;;;;5012729;28;20201;-69
2021/07/13 05:03:27;;;;;;;142.90;86.18;;;;;;;;;;5020468;28;20269;-69
2021/07/13 05:05:52;;;;;;;139.82;85.45;;;;;;;;;;5015895;28;20284;-69
2021/07/13 05:08:18;;;;;;;141.25;84.13;;;;;;;;;;5018823;28;20171;-68
2021/07/13 05:10:44;;;;;;;143.10;85.60;;;;;;;;;;5012174;28;20190;-70
2021/07/13 05:13:11;;;;;;;147.90;86.60;;;;;;;;;;5025275;28;20186;-70
2021/07/13 05:15:39;;;;;;;145.30;86.47;;;;;;;;;;5019282;28;20190;-70
2021/07/13 05:18:11;;;;;;;146.73;87.50;;;;;;;;;;5024944;28;20206;-69
2021/07/13 05:20:37;;;;;;;141.10;85.28;;;;;;;;;;5009770;28;20189;-69
2021/07/13 05:23:08;;;;;;;149.57;88.25;;;;;;;;;;5020359;28;20182;-69
2021/07/13 05:25:34;;;;;;;142.45;86.18;;;;;;;;;;5026266;28;20257;-69
2021/07/13 05:28:00;;;;;;;148.02;85.80;;;;;;;;;;5018022;28;20190;-68
2021/07/13 05:30:27;;;;;;;141.40;84.90;;;;;;;;;;5024502;28;20251;-69
2021/07/13 05:32:53;;;;;;;138.85;84.10;;;;;;;;;;5016110;28;20646;-70
2021/07/13 05:35:18;;;;;;;145.93;83.00;;;;;;;;;;5003369;28;20217;-69
2021/07/13 05:37:43;;;;;;;142.80;84.78;;;;;;;;;;5014150;28;20215;-70
2021/07/13 05:40:09;;;;;;;143.02;84.88;;;;;;;;;;5026355;28;20182;-69
2021/07/13 05:42:35;;;;;;;141.13;84.45;;;;;;;;;;5013045;28;20835;-69
2021/07/13 05:45:02;;;;;;;145.80;85.95;;;;;;;;;;5024876;28;20182;-69
2021/07/13 05:47:27;;;;;;;150.20;85.93;;;;;;;;;;5017292;28;20251;-70
2021/07/13 05:49:54;;;;;;;140.50;82.72;;;;;;;;;;5020515;28;20304;-70
2021/07/13 05:52:19;;;;;;;144.23;83.70;;;;;;;;;;5014168;28;20194;-70
2021/07/13 05:54:44;;;;;;;131.20;80.68;;;;;;;;;;5020003;28;20213;-70
2021/07/13 05:57:10;;;;;;;130.55;78.70;;;;;;;;;;5026779;28;20205;-69
2021/07/13 05:59:35;;;;;;;122.80;77.50;;;;;;;;;;5010837;28;20203;-69
2021/07/13 06:02:01;;;;;;;127.45;78.05;;;;;;;;;;5027258;28;20212;-69
2021/07/13 06:04:26;;;;;;;128.43;78.13;;;;;;;;;;5012672;28;20642;-69
2021/07/13 06:06:51;;;;;;;126.57;78.65;;;;;;;;;;5022409;28;20178;-69
2021/07/13 06:09:17;;;;;;;128.07;77.65;;;;;;;;;;5017127;28;20182;-70
2021/07/13 06:11:42;;;;;;;128.57;80.35;;;;;;;;;;5023982;28;20193;-69
2021/07/13 06:14:07;;;;;;;131.55;77.35;;;;;;;;;;5013806;28;20188;-69
2021/07/13 06:16:33;;;;;;;140.55;81.00;;;;;;;;;;5020510;28;20189;-69
2021/07/13 06:18:58;;;;;;;132.27;80.07;;;;;;;;;;5014456;28;20316;-70
2021/07/13 06:21:23;;;;;;;149.23;84.65;;;;;;;;;;5023310;28;20190;-70
2021/07/13 06:23:49;;;;;;;141.82;81.50;;;;;;;;;;5015746;28;20201;-70
2021/07/13 06:26:14;;;;;;;146.98;83.47;;;;;;;;;;5024242;28;20179;-70
2021/07/13 06:28:39;;;;;;;152.18;86.53;;;;;;;;;;5021189;28;20206;-70
2021/07/13 06:31:05;;;;;;;154.55;86.68;;;;;;;;;;5014448;28;20725;-69
2021/07/13 06:33:30;;;;;;;135.45;77.63;;;;;;;;;;5021319;28;20293;-69
2021/07/13 06:35:55;;;;;;;134.50;78.88;;;;;;;;;;5013518;28;20215;-70
2021/07/13 06:38:21;;;;;;;138.73;79.78;;;;;;;;;;5008292;28;20748;-70
2021/07/13 06:40:46;;;;;;;139.25;82.10;;;;;;;;;;5008323;28;20198;-70
2021/07/13 06:43:11;;;;;;;139.93;79.22;;;;;;;;;;5018440;28;20182;-70
2021/07/13 06:45:37;;;;;;;125.90;75.65;;;;;;;;;;5012204;28;20193;-70
2021/07/13 06:48:03;;;;;;;127.63;76.00;;;;;;;;;;5025065;28;20182;-70
2021/07/13 06:50:28;;;;;;;133.02;79.57;;;;;;;;;;5014314;28;20187;-69
2021/07/13 06:52:53;;;;;;;129.57;77.15;;;;;;;;;;5023510;28;20633;-69
2021/07/13 06:55:19;;;;;;;130.40;77.55;;;;;;;;;;5015852;28;20595;-69
2021/07/13 06:57:45;;;;;;;119.85;73.40;;;;;;;;;;5017592;28;20205;-69
2021/07/13 07:00:12;;;;;;;132.75;76.57;;;;;;;;;;5023763;28;20569;-70
2021/07/13 07:02:37;;;;;;;117.03;71.13;;;;;;;;;;5011012;28;20195;-70
2021/07/13 07:05:03;;;;;;;107.28;66.60;;;;;;;;;;5025409;28;20185;-69
2021/07/13 07:07:28;;;;;;;119.82;71.70;;;;;;;;;;5016883;28;20724;-69
2021/07/13 07:09:53;;;;;;;112.65;68.90;;;;;;;;;;5024297;28;20189;-69
2021/07/13 07:12:19;;;;;;;106.47;65.82;;;;;;;;;;5010438;28;20194;-69
2021/07/13 07:14:44;;;;;;;101.75;65.18;;;;;;;;;;5023146;28;20224;-69
2021/07/13 07:17:09;;;;;;;99.32;61.47;;;;;;;;;;5012552;28;20305;-69
2021/07/13 07:19:35;;;;;;;92.40;61.35;;;;;;;;;;5024714;28;20184;-69
2021/07/13 07:22:00;;;;;;;93.07;62.65;;;;;;;;;;5015842;28;20520;-69
2021/07/13 07:24:25;;;;;;;86.07;60.30;;;;;;;;;;5021314;28;20186;-69
2021/07/13 07:26:51;;;;;;;90.30;59.55;;;;;;;;;;5013741;28;20608;-70
2021/07/13 07:29:16;;;;;;;86.57;60.88;;;;;;;;;;5023329;28;20521;-69
2021/07/13 07:31:43;;;;;;;93.70;61.38;;;;;;;;;;5023963;28;20236;-69
2021/07/13 07:34:08;;;;;;;95.85;61.45;;;;;;;;;;5016874;28;20186;-69
2021/07/13 07:36:33;;;;;;;100.53;63.50;;;;;;;;;;5021813;28;20244;-69
2021/07/13 07:38:59;;;;;;;102.60;64.20;;;;;;;;;;5011253;28;20213;-69
2021/07/13 07:41:24;;;;;;;99.20;64.63;;;;;;;;;;5024217;28;20637;-69
2021/07/13 07:43:50;;;;;;;90.82;60.35;;;;;;;;;;5016069;28;20197;-69
2021/07/13 07:46:16;;;;;;;100.35;61.78;;;;;;;;;;5022454;28;20182;-70
2021/07/13 07:48:41;;;;;;;98.60;63.55;;;;;;;;;;5016515;28;20230;-69
2021/07/13 07:51:07;;;;;;;93.25;60.30;;;;;;;;;;5021395;28;20190;-70
2021/07/13 07:53:32;;;;;;;96.25;60.67;;;;;;;;;;5011553;28;20328;-70
2021/07/13 07:55:58;;;;;;;87.57;58.30;;;;;;;;;;5019938;28;20189;-70
2021/07/13 07:58:24;;;;;;;87.32;58.22;;;;;;;;;;5023665;28;20209;-70
2021/07/13 08:00:49;;;;;;;85.18;56.92;;;;;;;;;;5019996;28;20216;-70
2021/07/13 08:03:14;;;;;;;82.20;57.15;;;;;;;;;;5027841;28;20174;-70
2021/07/13 08:05:40;;;;;;;73.88;52.30;;;;;;;;;;5015286;28;20190;-68
2021/07/13 08:08:07;;;;;;;76.00;54.15;;;;;;;;;;5030043;28;20186;-69
2021/07/13 08:10:32;;;;;;;78.85;54.53;;;;;;;;;;5014835;28;20182;-70
2021/07/13 08:12:59;;;;;;;85.20;56.63;;;;;;;;;;5025109;28;20216;-69
2021/07/13 08:15:26;;;;;;;92.53;61.05;;;;;;;;;;5018820;28;20221;-67
2021/07/13 08:17:51;;;;;;;86.53;59.13;;;;;;;;;;5029882;28;20229;-68
2021/07/13 08:20:17;;;;;;;81.88;56.97;;;;;;;;;;5018319;28;20279;-68
2021/07/13 08:22:47;;;;;;;82.68;59.22;;;;;;;;;;5026691;28;20192;-68
2021/07/13 08:25:13;;;;;;;88.50;61.05;;;;;;;;;;5013767;28;20191;-69
2021/07/13 08:27:39;;;;;;;90.18;61.30;;;;;;;;;;5027347;28;20197;-69
2021/07/13 08:30:05;;;;;;;84.25;59.80;;;;;;;;;;5015484;28;20637;-69
2021/07/13 08:32:30;;;;;;;93.65;60.85;;;;;;;;;;5022073;28;20190;-69
2021/07/13 08:34:56;;;;;;;80.90;59.65;;;;;;;;;;5023535;28;20615;-69
2021/07/13 08:37:21;;;;;;;77.45;55.35;;;;;;;;;;5016079;28;20213;-69
2021/07/13 08:39:48;;;;;;;84.82;60.55;;;;;;;;;;5026741;28;20721;-69
2021/07/13 08:42:15;;;;;;;86.38;60.97;;;;;;;;;;5017179;28;20316;-69
2021/07/13 08:44:41;;;;;;;89.10;60.58;;;;;;;;;;5025215;28;20236;-68
2021/07/13 08:47:06;;;;;;;89.38;63.00;;;;;;;;;;5012360;28;20197;-68
2021/07/13 08:49:32;;;;;;;94.93;64.90;;;;;;;;;;5022109;28;20324;-69
2021/07/13 08:51:57;;;;;;;84.10;57.47;;;;;;;;;;5014683;28;20646;-70
2021/07/13 08:54:23;;;;;;;83.28;60.00;;;;;;;;;;5023735;28;20665;-69
2021/07/13 08:56:48;;;;;;;75.70;55.17;;;;;;;;;;5017059;28;20604;-69
2021/07/13 08:59:13;;;;;;;77.25;56.72;;;;;;;;;;5024486;28;20288;-68
2021/07/13 09:01:39;;;;;;;76.90;55.63;;;;;;;;;;5015255;28;20217;-69
2021/07/13 09:04:05;;;;;;;77.22;55.72;;;;;;;;;;5024907;28;20189;-68
2021/07/13 09:06:51;;;;;;;82.70;58.55;;;;;;;;;;5023246;28;20209;-68
2021/07/13 09:09:26;;;;;;;74.10;53.72;;;;;;;;;;5021724;28;20190;-70
2021/07/13 09:12:08;;;;;;;73.90;55.72;;;;;;;;;;5028172;28;20226;-68
2021/07/13 09:14:54;;;;;;;74.30;56.55;;;;;;;;;;5023703;28;20194;-68
2021/07/13 09:17:38;;;;;;;74.45;55.30;;;;;;;;;;5011813;28;20253;-69
2021/07/13 09:20:11;;;;;;;77.25;57.90;;;;;;;;;;5027959;28;20177;-67
2021/07/13 09:22:40;;;;;;;75.65;56.67;;;;;;;;;;5019137;28;20273;-68
2021/07/13 09:25:21;;;;;;;75.30;57.38;;;;;;;;;;5026276;28;20542;-68
2021/07/13 09:28:07;;;;;;;84.45;60.08;;;;;;;;;;5021850;28;20194;-70
2021/07/13 09:30:33;;;;;;;84.82;58.88;;;;;;;;;;5027966;28;20196;-69
2021/07/13 09:33:26;;;;;;;77.60;58.05;;;;;;;;;;5023037;28;20548;-69
2021/07/13 09:35:58;;;;;;;78.97;58.78;;;;;;;;;;5023238;28;20186;-70
2021/07/13 09:38:24;;;;;;;143.07;64.97;;;;;;;;;;5016350;28;20232;-71
2021/07/13 09:41:02;;;;;;;72.85;55.28;;;;;;;;;;5025101;28;20240;-70
2021/07/13 09:43:39;;;;;;;74.95;57.15;;;;;;;;;;5025879;28;20280;-70
2021/07/13 09:46:21;;;;;;;77.32;57.55;;;;;;;;;;5025667;28;20200;-70
2021/07/13 09:49:12;;;;;;;67.63;54.42;;;;;;;;;;5024329;28;20257;-70
2021/07/13 09:51:39;;;;;;;65.68;51.03;;;;;;;;;;5022170;28;20713;-70
2021/07/13 09:54:29;;;;;;;65.95;52.63;;;;;;;;;;5013741;28;20225;-70
2021/07/13 09:56:55;;;;;;;67.20;52.92;;;;;;;;;;5020865;28;20246;-70
2021/07/13 09:59:20;;;;;;;69.68;52.72;;;;;;;;;;5016283;28;20210;-70
2021/07/13 10:01:46;;;;;;;69.00;52.75;;;;;;;;;;5021456;28;20193;-70
2021/07/13 10:04:11;;;;;;;68.70;54.33;;;;;;;;;;5024102;28;20209;-70
2021/07/13 10:06:38;;;;;;;75.10;55.30;;;;;;;;;;5015619;28;20182;-70
2021/07/13 10:09:11;;;;;;;66.63;52.35;;;;;;;;;;5023586;28;20213;-70
2021/07/13 10:11:41;;;;;;;66.53;53.30;;;;;;;;;;5014804;28;20198;-70
2021/07/13 10:14:10;;;;;;;67.88;54.72;;;;;;;;;;5025105;28;20616;-70
2021/07/13 10:16:37;;;;;;;65.57;52.25;;;;;;;;;;5013762;28;20189;-70
2021/07/13 10:19:05;;;;;;;63.78;51.40;;;;;;;;;;5022769;28;20284;-69
2021/07/13 10:21:31;;;;;;;57.55;47.25;;;;;;;;;;5012976;28;20281;-69
2021/07/13 10:23:58;;;;;;;59.28;48.35;;;;;;;;;;5025686;28;20193;-69
2021/07/13 10:26:53;;;;;;;51.25;43.95;;;;;;;;;;5014953;28;20614;-69
2021/07/13 10:29:34;;;;;;;55.25;45.22;;;;;;;;;;5004780;28;21535;-70
2021/07/13 10:32:03;;;;;;;54.42;45.97;;;;;;;;;;5012592;28;20190;-69
2021/07/13 10:34:50;;;;;;;54.58;45.83;;;;;;;;;;5020372;28;20189;-69
2021/07/13 10:37:37;;;;;;;75.32;49.55;;;;;;;;;;5013119;28;20186;-69
2021/07/13 10:40:08;;;;;;;53.30;45.75;;;;;;;;;;5008411;28;20197;-68
2021/07/13 10:42:44;;;;;;;57.08;47.35;;;;;;;;;;5011914;28;20193;-69
2021/07/13 10:45:23;;;;;;;55.25;46.63;;;;;;;;;;5020968;28;20194;-68
2021/07/13 10:47:58;;;;;;;77.32;51.13;;;;;;;;;;5010594;28;20182;-69
2021/07/13 10:50:26;;;;;;;59.10;50.35;;;;;;;;;;5021258;28;20214;-69
2021/07/13 10:53:00;;;;;;;58.45;48.85;;;;;;;;;;5012743;28;20572;-69
2021/07/13 10:55:31;;;;;;;56.10;45.20;;;;;;;;;;5024812;28;20212;-68
2021/07/13 10:58:09;;;;;;;51.72;43.42;;;;;;;;;;5010346;28;20713;-69
2021/07/13 11:00:47;;;;;;;55.17;46.95;;;;;;;;;;5023860;28;20728;-69
2021/07/13 11:03:27;;;;;;;55.95;47.20;;;;;;;;;;5012375;28;20189;-69
2021/07/13 11:05:54;;;;;;;55.97;45.35;;;;;;;;;;5006440;28;20384;-69
2021/07/13 11:08:39;;;;;;;48.10;41.85;;;;;;;;;;5014973;28;20658;-69
2021/07/13 11:11:08;;;;;;;56.00;45.10;;;;;;;;;;5024187;28;20699;-69
2021/07/13 11:13:34;;;;;;;53.55;44.83;;;;;;;;;;5014643;28;20212;-69
2021/07/13 11:16:00;;;;;;;49.90;43.72;;;;;;;;;;5020036;28;20182;-68
2021/07/13 11:18:30;;;;;;;56.67;46.70;;;;;;;;;;5014910;28;20547;-70
2021/07/13 11:21:12;;;;;;;49.05;42.70;;;;;;;;;;5006143;28;20181;-70
2021/07/13 11:23:37;;;;;;;46.05;40.55;;;;;;;;;;5010001;28;20197;-70
2021/07/13 11:26:04;;;;;;;47.30;41.30;;;;;;;;;;5009398;28;20273;-69
2021/07/13 11:28:29;;;;;;;48.13;41.63;;;;;;;;;;5023904;28;20696;-70
2021/07/13 11:30:55;;;;;;;47.03;40.85;;;;;;;;;;5012215;28;20195;-70
2021/07/13 11:33:25;;;;;;;50.55;40.55;;;;;;;;;;5020201;28;20204;-69
2021/07/13 11:35:53;;;;;;;45.78;39.92;;;;;;;;;;5019498;28;20264;-69
2021/07/13 11:38:30;;;;;;;45.20;40.45;;;;;;;;;;5005642;28;20202;-69
2021/07/13 11:41:15;;;;;;;44.53;39.72;;;;;;;;;;5013610;28;20194;-69
2021/07/13 11:43:42;;;;;;;43.92;38.42;;;;;;;;;;5025948;28;20257;-69
2021/07/13 11:46:16;;;;;;;43.53;38.95;;;;;;;;;;5018979;28;20661;-69
2021/07/13 11:49:05;;;;;;;46.70;41.08;;;;;;;;;;5024288;28;20230;-69
2021/07/13 11:51:35;;;;;;;46.70;41.65;;;;;;;;;;5015552;28;20577;-70
2021/07/13 11:54:09;;;;;;;46.53;41.45;;;;;;;;;;5025962;28;20240;-70
2021/07/13 11:56:36;;;;;;;47.45;42.30;;;;;;;;;;5016425;28;20182;-70
2021/07/13 11:59:03;;;;;;;47.53;41.10;;;;;;;;;;5024133;28;20601;-70
2021/07/13 12:01:31;;;;;;;46.20;41.17;;;;;;;;;;5016066;28;20599;-70
2021/07/13 12:04:07;;;;;;;44.70;39.90;;;;;;;;;;5026780;28;20182;-70
2021/07/13 12:06:34;;;;;;;45.72;40.63;;;;;;;;;;5020127;28;20224;-68
2021/07/13 12:09:23;;;;;;;45.05;39.78;;;;;;;;;;5024494;28;20477;-69
2021/07/13 12:11:50;;;;;;;47.15;40.72;;;;;;;;;;5019281;28;20670;-69
2021/07/13 12:14:18;;;;;;;44.40;39.60;;;;;;;;;;5025486;28;20174;-69
2021/07/13 12:16:44;;;;;;;43.70;38.85;;;;;;;;;;5018627;28;20668;-70
2021/07/13 12:19:15;;;;;;;42.65;35.67;;;;;;;;;;5028099;28;20197;-70
2021/07/13 12:21:50;;;;;;;41.10;36.60;;;;;;;;;;5017265;28;20198;-70
2021/07/13 12:24:17;;;;;;;41.00;33.90;;;;;;;;;;5022456;28;20217;-70
2021/07/13 12:26:48;;;;;;;40.67;36.35;;;;;;;;;;5014963;28;20197;-71
2021/07/13 12:29:15;;;;;;;40.67;36.38;;;;;;;;;;5021316;28;20181;-70
2021/07/13 12:31:43;;;;;;;42.03;37.33;;;;;;;;;;5019930;28;20190;-69
2021/07/13 12:34:15;;;;;;;40.83;36.55;;;;;;;;;;5019346;28;20191;-70
2021/07/13 12:36:40;;;;;;;46.65;38.75;;;;;;;;;;5026497;28;20194;-70
2021/07/13 12:39:20;;;;;;;43.00;38.20;;;;;;;;;;5015820;28;20270;-70
2021/07/13 12:41:58;;;;;;;42.30;37.45;;;;;;;;;;5025040;28;20195;-71
2021/07/13 12:44:31;;;;;;;43.33;38.38;;;;;;;;;;5018117;28;20189;-70
2021/07/13 12:47:14;;;;;;;41.42;36.92;;;;;;;;;;5024741;28;20220;-70
2021/07/13 12:49:40;;;;;;;40.20;35.92;;;;;;;;;;5017484;28;20222;-72
2021/07/13 12:52:10;;;;;;;43.58;38.05;;;;;;;;;;5019741;28;20186;-70
2021/07/13 12:54:58;;;;;;;41.53;37.22;;;;;;;;;;4998532;28;20194;-69
2021/07/13 12:57:28;;;;;;;42.40;37.85;;;;;;;;;;5027918;28;20189;-70
2021/07/13 13:00:03;;;;;;;43.30;38.70;;;;;;;;;;5009071;28;20673;-70
2021/07/13 13:02:28;;;;;;;43.75;39.00;;;;;;;;;;5027192;28;20184;-69
2021/07/13 13:04:53;;;;;;;40.83;36.55;;;;;;;;;;5016422;28;20182;-72
2021/07/13 13:07:21;;;;;;;42.05;37.65;;;;;;;;;;5024780;28;20182;-70
2021/07/13 13:09:46;;;;;;;41.60;37.20;;;;;;;;;;5016285;28;20197;-70
2021/07/13 13:12:11;;;;;;;39.75;35.47;;;;;;;;;;5010170;28;20182;-71
2021/07/13 13:14:37;;;;;;;39.55;35.17;;;;;;;;;;5016250;28;20190;-69
2021/07/13 13:17:05;;;;;;;38.53;34.45;;;;;;;;;;5024174;28;20521;-71
2021/07/13 13:19:31;;;;;;;37.90;34.05;;;;;;;;;;5009785;28;20191;-70
2021/07/13 13:21:57;;;;;;;35.33;31.88;;;;;;;;;;5028823;28;20265;-69
2021/07/13 13:24:23;;;;;;;37.03;33.28;;;;;;;;;;5022037;28;20270;-70
2021/07/13 13:26:48;;;;;;;35.80;32.35;;;;;;;;;;5022072;28;20179;-69
2021/07/13 13:29:13;;;;;;;36.33;32.63;;;;;;;;;;5006328;28;20185;-70
2021/07/13 13:31:39;;;;;;;37.50;33.28;;;;;;;;;;5014519;28;20725;-70
2021/07/13 13:34:04;;;;;;;36.63;32.92;;;;;;;;;;5025786;28;20198;-70
2021/07/13 13:36:30;;;;;;;37.60;33.95;;;;;;;;;;5017701;28;20186;-70
2021/07/13 13:39:02;;;;;;;36.47;32.88;;;;;;;;;;5025893;28;20220;-69
2021/07/13 13:41:28;;;;;;;38.40;34.22;;;;;;;;;;5013311;28;20194;-70
2021/07/13 13:43:53;;;;;;;34.13;30.83;;;;;;;;;;5022918;28;20541;-69
2021/07/13 13:46:19;;;;;;;36.33;32.53;;;;;;;;;;5016928;28;20189;-70
2021/07/13 13:48:45;;;;;;;33.80;30.33;;;;;;;;;;5025780;28;20230;-69
2021/07/13 13:51:11;;;;;;;36.03;32.33;;;;;;;;;;5015003;28;20248;-70
2021/07/13 13:53:38;;;;;;;36.53;32.72;;;;;;;;;;5029629;28;20186;-70
2021/07/13 13:56:06;;;;;;;35.85;32.33;;;;;;;;;;5021701;28;20185;-71
2021/07/13 13:58:32;;;;;;;36.05;32.35;;;;;;;;;;5024867;28;20224;-70
2021/07/13 14:00:57;;;;;;;34.97;31.30;;;;;;;;;;5027197;28;20202;-70
2021/07/13 14:03:22;;;;;;;36.10;32.47;;;;;;;;;;5017132;28;20190;-70
2021/07/13 14:05:48;;;;;;;33.72;30.30;;;;;;;;;;5027432;28;20209;-69
2021/07/13 14:08:13;;;;;;;35.03;31.60;;;;;;;;;;5016105;28;20269;-70
2021/07/13 14:10:39;;;;;;;35.10;31.52;;;;;;;;;;5027986;28;20236;-70
2021/07/13 14:13:04;;;;;;;36.25;32.55;;;;;;;;;;5018359;28;20190;-70
2021/07/13 14:15:29;;;;;;;35.45;31.92;;;;;;;;;;5028068;28;20201;-70
2021/07/13 14:17:55;;;;;;;35.55;32.05;;;;;;;;;;5019449;28;20218;-71
2021/07/13 14:20:20;;;;;;;36.22;32.53;;;;;;;;;;5027546;28;20174;-70